Togiak, Alaska
Current Conditions -  °F | °C
As of 10:36 AM on Thursday 27 Nov 2014 (Local Time) from PATG Reporting Station
NA  
Wind Chill: 34°   Ceiling: NA
Heat Index: 34°   Visibility: 10mi
Dew Point: 30°   Wind: 3mph
Humidity: 87%   Direction: 70°ENE
Pressure: 30.06"   Gusts: NA
Location:  59.07°N, 160.39°W
Report Text: PATG 271936Z AUTO 07003KT 10SM 01/M01 A3006 RMK AO1
Loading
Personal Weather Stations






























Interactive Weather Map New forecast layout! Learn more

10-Day Weather Forecast

Advertisements
Track Severe Weather on mobile